createdAt,value
2018-11-11T00:00:34.308Z,42.67
2018-11-11T00:03:03.058Z,41.13
2018-11-11T00:05:31.797Z,41.33
2018-11-11T00:08:00.422Z,39.03
2018-11-11T00:10:29.063Z,40.30
2018-11-11T00:12:57.722Z,37.43
2018-11-11T00:15:26.432Z,35.53
2018-11-11T00:17:55.086Z,37.47
2018-11-11T00:20:23.865Z,39.30
2018-11-11T00:22:52.473Z,36.47
2018-11-11T00:25:21.102Z,39.97
2018-11-11T00:27:49.724Z,34.90
2018-11-11T00:30:19.456Z,36.00
2018-11-11T00:32:48.130Z,36.07
2018-11-11T00:35:16.809Z,35.37
2018-11-11T00:37:45.431Z,32.93
2018-11-11T00:40:15.544Z,32.57
2018-11-11T00:42:44.537Z,31.63
2018-11-11T00:45:13.949Z,30.97
2018-11-11T00:47:42.747Z,31.97
2018-11-11T00:50:12.078Z,32.07
2018-11-11T00:52:40.793Z,29.87
2018-11-11T00:55:12.632Z,32.30
2018-11-11T00:57:41.673Z,31.07
2018-11-11T01:00:13.001Z,29.70
2018-11-11T01:02:42.265Z,29.80
2018-11-11T01:05:11.864Z,29.70
2018-11-11T01:07:41.466Z,29.87
2018-11-11T01:10:12.072Z,26.63
2018-11-11T01:12:41.768Z,27.77
2018-11-11T01:15:12.141Z,29.63
2018-11-11T01:17:40.827Z,32.93
2018-11-11T01:20:11.645Z,28.63
2018-11-11T01:22:40.301Z,30.10
2018-11-11T01:25:11.140Z,26.33
2018-11-11T01:27:39.793Z,30.30
2018-11-11T01:30:08.969Z,25.27
2018-11-11T01:32:37.829Z,31.33
2018-11-11T01:35:08.473Z,28.83
2018-11-11T01:37:37.134Z,30.23
2018-11-11T01:40:06.681Z,29.30
2018-11-11T01:42:35.317Z,27.57
2018-11-11T01:45:04.018Z,29.07
2018-11-11T01:47:32.639Z,28.60
2018-11-11T01:50:01.318Z,28.47
2018-11-11T01:52:29.959Z,27.93
2018-11-11T01:54:58.602Z,27.57
2018-11-11T01:57:27.250Z,25.53
2018-11-11T01:59:55.948Z,29.10
2018-11-11T02:02:24.661Z,29.13
2018-11-11T02:04:53.303Z,28.73
2018-11-11T02:07:21.958Z,29.03
2018-11-11T02:09:50.761Z,31.23
2018-11-11T02:12:19.343Z,31.07
2018-11-11T02:14:48.273Z,27.23
2018-11-11T02:17:16.927Z,32.67
2018-11-11T02:19:45.653Z,30.23
2018-11-11T02:22:14.650Z,26.70
2018-11-11T02:24:43.261Z,28.83
2018-11-11T02:27:11.976Z,26.17
2018-11-11T02:29:40.582Z,28.57
2018-11-11T02:32:09.593Z,28.73
2018-11-11T02:34:38.237Z,28.23
2018-11-11T02:37:07.226Z,32.97
2018-11-11T02:39:35.854Z,28.77
2018-11-11T02:42:04.529Z,29.27
2018-11-11T02:44:33.205Z,30.17
2018-11-11T02:47:01.841Z,30.90
2018-11-11T02:49:30.798Z,29.90
2018-11-11T02:51:59.464Z,30.83
2018-11-11T02:54:28.136Z,30.53
2018-11-11T02:56:57.052Z,29.40
2018-11-11T02:59:25.726Z,30.50
2018-11-11T03:01:54.390Z,29.47
2018-11-11T03:04:23.118Z,29.77
2018-11-11T03:06:51.697Z,31.37
2018-11-11T03:09:20.360Z,29.10
2018-11-11T03:11:49.022Z,28.10
2018-11-11T03:14:17.642Z,30.30
2018-11-11T03:16:46.261Z,31.37
2018-11-11T03:19:14.921Z,30.97
2018-11-11T03:21:43.557Z,28.40
2018-11-11T03:24:12.182Z,29.70
2018-11-11T03:26:40.816Z,31.87
2018-11-11T03:29:09.571Z,32.27
2018-11-11T03:31:38.201Z,32.93
2018-11-11T03:34:06.829Z,30.93
2018-11-11T03:36:35.438Z,34.33
2018-11-11T03:39:04.382Z,31.03
2018-11-11T03:41:33.042Z,30.10
2018-11-11T03:44:01.698Z,29.37
2018-11-11T03:46:30.368Z,33.73
2018-11-11T03:48:59.030Z,32.13
2018-11-11T03:51:27.679Z,33.03
2018-11-11T03:53:56.356Z,30.80
2018-11-11T03:56:25.006Z,32.27
2018-11-11T03:58:53.657Z,29.47
2018-11-11T04:01:22.638Z,31.63
2018-11-11T04:03:51.297Z,34.67
2018-11-11T04:06:19.962Z,29.37
2018-11-11T04:08:48.603Z,34.60
2018-11-11T04:11:17.277Z,32.77
2018-11-11T04:13:46.152Z,28.93
2018-11-11T04:16:14.825Z,29.93
2018-11-11T04:18:43.504Z,27.13
2018-11-11T04:21:12.270Z,36.60
2018-11-11T04:23:40.964Z,36.43
2018-11-11T04:26:09.669Z,33.63
2018-11-11T04:28:38.315Z,36.05
2018-11-11T04:31:07.221Z,38.53
2018-11-11T04:33:35.869Z,35.97
2018-11-11T04:36:04.574Z,32.95
2018-11-11T04:38:33.213Z,33.60
2018-11-11T04:41:01.849Z,28.63
2018-11-11T04:43:30.479Z,34.47
2018-11-11T04:45:59.145Z,38.00
2018-11-11T04:48:27.814Z,33.33
2018-11-11T04:50:56.497Z,32.90
2018-11-11T04:53:25.128Z,29.27
2018-11-11T04:55:53.793Z,32.43
2018-11-11T04:58:22.477Z,33.93
2018-11-11T05:00:51.115Z,29.03
2018-11-11T05:03:19.806Z,31.53
2018-11-11T05:05:48.474Z,29.33
2018-11-11T05:08:17.153Z,33.73
2018-11-11T05:10:52.089Z,29.37
2018-11-11T05:13:20.708Z,28.95
2018-11-11T05:15:49.319Z,29.77
2018-11-11T05:18:17.983Z,33.33
2018-11-11T05:20:46.643Z,32.00
2018-11-11T05:23:15.334Z,32.70
2018-11-11T05:25:43.969Z,35.90
2018-11-11T05:28:12.598Z,29.43
2018-11-11T05:30:41.225Z,31.63
2018-11-11T05:33:09.923Z,30.37
2018-11-11T05:35:38.582Z,31.40
2018-11-11T05:38:07.436Z,31.43
2018-11-11T05:40:36.100Z,30.00
2018-11-11T05:43:04.795Z,33.83
2018-11-11T05:45:33.505Z,30.07
2018-11-11T05:48:02.134Z,31.87
2018-11-11T05:50:31.195Z,28.53
2018-11-11T05:52:59.901Z,35.57
2018-11-11T05:55:28.524Z,32.73
2018-11-11T05:57:57.214Z,30.40
2018-11-11T06:00:25.941Z,29.50
2018-11-11T06:02:54.582Z,37.60
2018-11-11T06:05:23.270Z,36.63
2018-11-11T06:07:51.988Z,44.10
2018-11-11T06:10:20.726Z,42.17
2018-11-11T06:12:49.424Z,34.73
2018-11-11T06:15:18.049Z,37.60
2018-11-11T06:17:46.759Z,41.13
2018-11-11T06:20:16.470Z,35.53
2018-11-11T06:22:45.179Z,39.60
2018-11-11T06:25:13.804Z,41.33
2018-11-11T06:27:42.452Z,45.50
2018-11-11T06:30:11.945Z,45.43
2018-11-11T06:32:40.632Z,41.67
2018-11-11T06:35:09.474Z,45.13
2018-11-11T06:37:38.237Z,33.97
2018-11-11T06:40:08.685Z,29.73
2018-11-11T06:42:37.662Z,27.30
2018-11-11T06:45:07.730Z,27.33
2018-11-11T06:47:36.368Z,29.23
2018-11-11T06:50:05.766Z,29.43
2018-11-11T06:52:34.415Z,30.60
2018-11-11T06:55:03.105Z,29.40
2018-11-11T06:57:31.986Z,29.20
2018-11-11T07:00:00.593Z,29.60
2018-11-11T07:02:35.054Z,30.33
2018-11-11T07:05:04.048Z,29.93
2018-11-11T07:07:32.746Z,32.03
2018-11-11T07:10:01.501Z,31.90
2018-11-11T07:12:30.207Z,33.30
2018-11-11T07:14:58.833Z,34.57
2018-11-11T07:17:27.502Z,34.93
2018-11-11T07:19:56.100Z,36.83
2018-11-11T07:22:24.789Z,38.63
2018-11-11T07:24:53.429Z,42.83
2018-11-11T07:27:22.146Z,44.10
2018-11-11T07:29:50.753Z,45.00
2018-11-11T07:32:19.447Z,44.43
2018-11-11T07:34:48.074Z,45.13
2018-11-11T07:37:16.834Z,44.27
2018-11-11T07:39:45.504Z,44.60
2018-11-11T07:42:14.500Z,46.80
2018-11-11T07:44:43.121Z,46.73
2018-11-11T07:47:11.767Z,47.57
2018-11-11T07:49:40.563Z,45.73
2018-11-11T07:52:09.243Z,44.80
2018-11-11T07:54:37.881Z,45.00
2018-11-11T07:57:06.604Z,45.43
2018-11-11T07:59:35.309Z,45.13
2018-11-11T08:02:04.023Z,45.03
2018-11-11T08:04:32.658Z,48.93
2018-11-11T08:07:01.313Z,50.07
2018-11-11T08:09:29.970Z,49.17
2018-11-11T08:12:00.149Z,51.00
2018-11-11T08:14:29.252Z,50.07
2018-11-11T08:16:58.190Z,50.50
2018-11-11T08:19:26.958Z,48.33
2018-11-11T08:21:55.603Z,48.70
2018-11-11T08:24:24.297Z,47.07
2018-11-11T08:26:53.230Z,44.53
2018-11-11T08:29:21.901Z,47.07
2018-11-11T08:31:50.528Z,46.13
2018-11-11T08:34:19.153Z,43.90
2018-11-11T08:36:48.054Z,44.73
2018-11-11T08:39:17.462Z,43.30
2018-11-11T08:41:46.601Z,38.37
2018-11-11T08:44:15.327Z,42.73
2018-11-11T08:46:45.224Z,47.10
2018-11-11T08:49:14.622Z,42.37
2018-11-11T08:51:43.282Z,41.27
2018-11-11T08:54:11.910Z,43.73
2018-11-11T08:56:40.581Z,41.67
2018-11-11T08:59:09.251Z,43.47
2018-11-11T09:01:37.976Z,39.10
2018-11-11T09:04:07.138Z,42.30
2018-11-11T09:06:35.799Z,41.70
2018-11-11T09:09:05.192Z,35.63
2018-11-11T09:11:33.992Z,36.77
2018-11-11T09:14:02.557Z,38.73
2018-11-11T09:16:31.239Z,40.87
2018-11-11T09:18:59.911Z,39.60
2018-11-11T09:21:29.098Z,40.50
2018-11-11T09:23:57.729Z,34.73
2018-11-11T09:26:26.381Z,40.13
2018-11-11T09:28:55.074Z,37.30
2018-11-11T09:31:23.902Z,47.17
2018-11-11T09:33:52.564Z,42.57
2018-11-11T09:36:21.265Z,36.13
2018-11-11T09:38:49.951Z,31.13
2018-11-11T09:41:18.604Z,27.40
2018-11-11T09:43:47.295Z,30.43
2018-11-11T09:46:15.985Z,30.93
2018-11-11T09:48:44.628Z,31.07
2018-11-11T09:51:13.328Z,29.50
2018-11-11T09:53:42.041Z,31.30
2018-11-11T09:56:10.705Z,29.60
2018-11-11T09:58:39.409Z,29.30
2018-11-11T10:01:08.197Z,27.93
2018-11-11T10:03:42.746Z,30.47
2018-11-11T10:06:18.302Z,29.73
2018-11-11T10:08:52.169Z,27.10
2018-11-11T10:11:59.118Z,27.70
2018-11-11T10:14:39.401Z,27.30
2018-11-11T10:18:11.766Z,26.77
2018-11-11T10:21:01.646Z,28.17
2018-11-11T10:23:35.598Z,26.20
2018-11-11T10:26:10.003Z,23.40
2018-11-11T10:28:46.417Z,24.10
2018-11-11T10:32:19.028Z,23.47
2018-11-11T10:35:23.122Z,24.37
2018-11-11T10:37:58.280Z,24.93
2018-11-11T10:41:30.746Z,26.23
2018-11-11T10:44:03.773Z,24.53
2018-11-11T10:46:42.123Z,24.67
2018-11-11T10:49:12.555Z,23.17
2018-11-11T10:51:41.215Z,22.30
2018-11-11T10:54:09.951Z,25.67
2018-11-11T10:56:38.565Z,25.20
2018-11-11T10:59:07.242Z,25.83
2018-11-11T11:01:41.090Z,22.97
2018-11-11T11:04:10.133Z,23.47
2018-11-11T11:06:43.898Z,24.03
2018-11-11T11:09:13.807Z,21.73
2018-11-11T11:11:43.605Z,22.00
2018-11-11T11:14:12.782Z,20.13
2018-11-11T11:16:41.434Z,22.37
2018-11-11T11:19:10.180Z,20.77
2018-11-11T11:21:39.115Z,21.00
2018-11-11T11:24:07.766Z,19.00
2018-11-11T11:26:36.390Z,20.00
2018-11-11T11:29:05.136Z,19.03
2018-11-11T11:31:33.877Z,15.43
2018-11-11T11:34:02.786Z,15.23
2018-11-11T11:36:31.469Z,15.57
2018-11-11T11:39:00.168Z,14.50
2018-11-11T11:41:28.936Z,14.60
2018-11-11T11:43:57.640Z,14.60
2018-11-11T11:46:26.266Z,15.53
2018-11-11T11:48:54.992Z,13.80
2018-11-11T11:51:23.638Z,15.13
2018-11-11T11:53:52.265Z,15.47
2018-11-11T11:56:20.954Z,16.43
2018-11-11T11:58:50.461Z,18.47
2018-11-11T12:01:19.115Z,17.80
2018-11-11T12:03:47.715Z,17.60
2018-11-11T12:06:16.378Z,17.77
2018-11-11T12:08:45.145Z,17.10
2018-11-11T12:11:13.771Z,17.23
2018-11-11T12:13:42.447Z,18.50
2018-11-11T12:16:11.078Z,23.67
2018-11-11T12:18:40.413Z,20.03
2018-11-11T12:21:09.073Z,18.27
2018-11-11T12:23:37.709Z,18.97
2018-11-11T12:26:06.378Z,18.60
2018-11-11T12:28:35.143Z,18.63
2018-11-11T12:31:03.814Z,18.30
2018-11-11T12:33:32.463Z,18.10
2018-11-11T12:36:01.113Z,20.30
2018-11-11T12:38:29.750Z,18.63
2018-11-11T12:40:58.504Z,20.73
2018-11-11T12:43:27.149Z,22.27
2018-11-11T12:45:55.815Z,20.07
2018-11-11T12:48:24.496Z,18.87
2018-11-11T12:50:53.141Z,19.13
2018-11-11T12:53:21.814Z,21.50
2018-11-11T12:55:50.485Z,20.50
2018-11-11T12:58:19.131Z,24.13
2018-11-11T13:00:47.814Z,20.10
2018-11-11T13:03:16.509Z,20.60
2018-11-11T13:05:45.136Z,20.87
2018-11-11T13:08:13.830Z,19.97
2018-11-11T13:10:42.486Z,19.80
2018-11-11T13:13:11.222Z,19.87
2018-11-11T13:15:39.899Z,20.03
2018-11-11T13:18:08.560Z,20.37
2018-11-11T13:20:37.217Z,20.33
2018-11-11T13:23:06.180Z,19.50
2018-11-11T13:25:34.902Z,19.60
2018-11-11T13:28:03.517Z,18.30
2018-11-11T13:30:32.167Z,18.77
2018-11-11T13:33:00.852Z,19.10
2018-11-11T13:35:29.502Z,19.77
2018-11-11T13:37:58.254Z,18.03
2018-11-11T13:40:26.889Z,17.93
2018-11-11T13:42:56.286Z,18.83
2018-11-11T13:45:24.953Z,19.70
2018-11-11T13:47:53.613Z,19.63
2018-11-11T13:50:23.699Z,19.67
2018-11-11T13:52:52.916Z,20.57
2018-11-11T13:55:22.409Z,20.80
2018-11-11T13:57:51.430Z,19.33
2018-11-11T14:00:28.966Z,19.00
2018-11-11T14:02:57.894Z,19.00
2018-11-11T14:05:26.829Z,18.27
2018-11-11T14:07:55.514Z,17.90
2018-11-11T14:10:24.229Z,18.10
2018-11-11T14:12:52.887Z,18.30
2018-11-11T14:15:23.612Z,18.00
2018-11-11T14:17:52.823Z,18.37
2018-11-11T14:20:22.854Z,18.93
2018-11-11T14:22:52.333Z,18.83
2018-11-11T14:25:23.744Z,18.27
2018-11-11T14:27:52.345Z,18.33
2018-11-11T14:30:22.463Z,17.67
2018-11-11T14:32:52.280Z,19.07
2018-11-11T14:35:20.979Z,19.03
2018-11-11T14:37:49.866Z,19.13
2018-11-11T14:40:25.634Z,20.17
2018-11-11T14:42:54.314Z,21.03
2018-11-11T14:45:23.489Z,21.47
2018-11-11T14:47:53.414Z,21.50
2018-11-11T14:50:22.738Z,21.20
2018-11-11T14:52:51.455Z,23.17
2018-11-11T14:55:22.582Z,21.97
2018-11-11T14:57:51.216Z,19.97
2018-11-11T15:00:23.967Z,20.80
2018-11-11T15:03:06.718Z,23.83
2018-11-11T15:05:35.514Z,23.57
2018-11-11T15:08:04.301Z,24.10
2018-11-11T15:10:32.945Z,24.30
2018-11-11T15:13:01.656Z,33.83
2018-11-11T15:15:30.275Z,29.20
2018-11-11T15:17:59.958Z,30.67
2018-11-11T15:20:28.657Z,28.33
2018-11-11T15:22:57.317Z,31.67
2018-11-11T15:25:27.185Z,28.77
2018-11-11T15:27:55.831Z,32.60
2018-11-11T15:30:25.955Z,33.03
2018-11-11T15:32:55.404Z,38.13
2018-11-11T15:35:24.113Z,33.90
2018-11-11T15:37:52.782Z,31.73
2018-11-11T15:40:22.855Z,29.33
2018-11-11T15:42:51.638Z,34.07
2018-11-11T15:45:22.477Z,32.47
2018-11-11T15:47:51.177Z,31.97
2018-11-11T15:50:21.347Z,30.10
2018-11-11T15:52:51.398Z,31.50
2018-11-11T15:55:21.054Z,32.53
2018-11-11T15:57:49.751Z,33.60
2018-11-11T16:00:23.834Z,34.23
2018-11-11T16:02:52.528Z,32.40
2018-11-11T16:05:21.382Z,31.97
2018-11-11T16:07:50.902Z,31.13
2018-11-11T16:10:25.754Z,31.43
2018-11-11T16:12:54.416Z,30.13
2018-11-11T16:15:25.336Z,28.50
2018-11-11T16:17:55.779Z,32.90
2018-11-11T16:20:25.765Z,31.33
2018-11-11T16:22:55.731Z,31.27
2018-11-11T16:25:24.428Z,32.33
2018-11-11T16:27:53.135Z,37.37
2018-11-11T16:30:24.127Z,40.90
2018-11-11T16:32:53.294Z,41.17
2018-11-11T16:35:23.238Z,41.60
2018-11-11T16:37:51.982Z,40.67
2018-11-11T16:40:23.892Z,42.70
2018-11-11T16:42:52.825Z,39.13
2018-11-11T16:45:23.201Z,43.20
2018-11-11T16:47:51.963Z,38.97
2018-11-11T16:50:23.910Z,39.60
2018-11-11T16:52:53.289Z,41.73
2018-11-11T16:55:23.468Z,41.40
2018-11-11T16:57:52.066Z,42.87
2018-11-11T17:00:23.104Z,50.33
2018-11-11T17:02:52.201Z,51.90
2018-11-11T17:05:22.229Z,50.73
2018-11-11T17:07:51.222Z,49.97
2018-11-11T17:10:23.941Z,74.37
2018-11-11T17:12:53.589Z,78.33
2018-11-11T17:15:23.834Z,90.17
2018-11-11T17:17:52.509Z,94.77
2018-11-11T17:20:22.274Z,108.57
2018-11-11T17:22:51.722Z,97.43
2018-11-11T17:25:21.350Z,102.00
2018-11-11T17:27:50.027Z,105.60
2018-11-11T17:30:21.116Z,107.80
2018-11-11T17:32:50.565Z,109.43
2018-11-11T17:35:19.266Z,109.00
2018-11-11T17:37:48.415Z,100.93
2018-11-11T17:40:19.316Z,93.93
2018-11-11T17:42:49.244Z,95.67
2018-11-11T17:45:18.219Z,87.67
2018-11-11T17:47:47.440Z,84.33
2018-11-11T17:50:19.279Z,90.13
2018-11-11T17:52:47.933Z,87.77
2018-11-11T17:55:17.930Z,91.30
2018-11-11T17:57:46.711Z,88.80
2018-11-11T18:00:18.725Z,84.93
2018-11-11T18:02:47.451Z,77.53
2018-11-11T18:05:17.497Z,72.07
2018-11-11T18:07:46.201Z,78.43
2018-11-11T18:10:16.136Z,79.17
2018-11-11T18:12:44.864Z,75.50
2018-11-11T18:15:15.765Z,58.30
2018-11-11T18:17:44.405Z,54.10
2018-11-11T18:20:24.696Z,57.40
2018-11-11T18:22:54.403Z,60.23
2018-11-11T18:25:23.378Z,61.47
2018-11-11T18:27:52.170Z,57.30
2018-11-11T18:30:24.486Z,83.30
2018-11-11T18:32:53.169Z,70.63
2018-11-11T18:35:22.133Z,63.83
2018-11-11T18:37:50.757Z,72.53
2018-11-11T18:40:20.809Z,76.00
2018-11-11T18:42:49.528Z,84.23
2018-11-11T18:45:20.630Z,84.43
2018-11-11T18:47:50.073Z,107.87
2018-11-11T18:50:22.441Z,114.70
2018-11-11T18:52:51.137Z,83.90
2018-11-11T18:55:19.822Z,53.13
2018-11-11T18:57:48.598Z,68.10
2018-11-11T19:00:25.216Z,66.53
2018-11-11T19:02:54.732Z,64.37
2018-11-11T19:05:24.067Z,49.50
2018-11-11T19:07:52.993Z,69.83
2018-11-11T19:10:23.860Z,56.73
2018-11-11T19:12:53.835Z,49.77
2018-11-11T19:15:22.812Z,51.83
2018-11-11T19:17:52.224Z,52.53
2018-11-11T19:20:22.228Z,51.80
2018-11-11T19:22:50.886Z,50.93
2018-11-11T19:25:20.953Z,60.03
2018-11-11T19:27:50.857Z,65.10
2018-11-11T19:30:20.655Z,66.23
2018-11-11T19:32:49.981Z,62.77
2018-11-11T19:35:18.874Z,66.17
2018-11-11T19:37:48.784Z,70.50
2018-11-11T19:40:19.004Z,64.90
2018-11-11T19:42:48.079Z,70.70
2018-11-11T19:45:19.009Z,61.43
2018-11-11T19:47:48.565Z,72.00
2018-11-11T19:50:18.628Z,79.33
2018-11-11T19:52:48.566Z,84.90
2018-11-11T19:55:18.462Z,80.33
2018-11-11T19:57:47.116Z,75.03
2018-11-11T20:00:18.553Z,62.77
2018-11-11T20:02:48.197Z,57.17
2018-11-11T20:05:17.483Z,61.70
2018-11-11T20:07:48.460Z,69.97
2018-11-11T20:10:18.189Z,62.97
2018-11-11T20:12:46.858Z,53.87
2018-11-11T20:15:18.687Z,51.83
2018-11-11T20:17:47.834Z,57.03
2018-11-11T20:20:20.090Z,42.43
2018-11-11T20:22:49.103Z,47.27
2018-11-11T20:25:18.627Z,57.10
2018-11-11T20:27:47.662Z,64.80
2018-11-11T20:30:19.887Z,45.17
2018-11-11T20:32:48.634Z,40.60
2018-11-11T20:35:19.223Z,36.57
2018-11-11T20:37:47.837Z,43.50
2018-11-11T20:40:17.852Z,47.17
2018-11-11T20:42:47.005Z,46.90
2018-11-11T20:45:16.794Z,45.97
2018-11-11T20:47:46.004Z,42.20
2018-11-11T20:50:16.608Z,37.77
2018-11-11T20:52:46.325Z,40.53
2018-11-11T20:55:16.430Z,38.07
2018-11-11T20:57:45.067Z,39.77
2018-11-11T21:00:17.186Z,29.77
2018-11-11T21:02:45.843Z,35.03
2018-11-11T21:05:15.793Z,39.67
2018-11-11T21:07:44.520Z,40.50
2018-11-11T21:10:15.605Z,39.30
2018-11-11T21:12:44.317Z,48.33
2018-11-11T21:15:15.421Z,43.37
2018-11-11T21:17:44.417Z,41.77
2018-11-11T21:20:14.369Z,44.10
2018-11-11T21:22:43.321Z,51.43
2018-11-11T21:25:12.614Z,42.20
2018-11-11T21:27:42.379Z,50.93
2018-11-11T21:30:13.734Z,52.60
2018-11-11T21:32:42.454Z,52.80
2018-11-11T21:35:11.631Z,53.97
2018-11-11T21:37:40.404Z,51.33
2018-11-11T21:40:12.597Z,54.40
2018-11-11T21:42:41.806Z,53.93
2018-11-11T21:45:12.128Z,52.93
2018-11-11T21:47:41.107Z,57.73
2018-11-11T21:50:11.914Z,56.47
2018-11-11T21:52:40.917Z,58.40
2018-11-11T21:55:09.905Z,60.03
2018-11-11T21:57:39.077Z,62.87
2018-11-11T22:00:11.719Z,72.13
2018-11-11T22:02:40.476Z,79.17
2018-11-11T22:05:10.579Z,78.43
2018-11-11T22:07:39.680Z,82.03
2018-11-11T22:10:10.418Z,74.50
2018-11-11T22:12:39.108Z,75.03
2018-11-11T22:15:09.058Z,70.30
2018-11-11T22:17:37.770Z,69.50
2018-11-11T22:20:07.239Z,72.10
2018-11-11T22:22:35.946Z,72.37
2018-11-11T22:25:05.082Z,70.03
2018-11-11T22:27:33.812Z,73.20
2018-11-11T22:30:02.458Z,70.70
2018-11-11T22:32:31.105Z,69.27
2018-11-11T22:34:59.718Z,72.20
2018-11-11T22:37:28.383Z,69.40
2018-11-11T22:39:57.039Z,73.73
2018-11-11T22:42:25.774Z,75.30
2018-11-11T22:44:54.425Z,72.40
2018-11-11T22:47:23.077Z,74.03
2018-11-11T22:49:51.998Z,70.13
2018-11-11T22:52:20.749Z,69.83
2018-11-11T22:54:49.421Z,67.20
2018-11-11T22:57:18.094Z,67.53
2018-11-11T22:59:46.758Z,66.70
2018-11-11T23:02:15.449Z,65.03
2018-11-11T23:04:44.146Z,68.93
2018-11-11T23:07:12.810Z,66.27
2018-11-11T23:09:41.458Z,64.33
2018-11-11T23:12:10.160Z,65.07
2018-11-11T23:14:38.897Z,65.87
2018-11-11T23:17:07.528Z,78.17
2018-11-11T23:19:36.205Z,89.73
2018-11-11T23:22:05.230Z,81.30
2018-11-11T23:24:33.853Z,79.23
2018-11-11T23:27:02.558Z,80.77
2018-11-11T23:29:31.250Z,76.03
2018-11-11T23:31:59.916Z,69.67
2018-11-11T23:34:28.638Z,71.80
2018-11-11T23:36:57.427Z,72.77
2018-11-11T23:39:26.132Z,98.13
2018-11-11T23:41:54.783Z,94.73
2018-11-11T23:44:23.450Z,90.80
2018-11-11T23:46:52.109Z,84.33
2018-11-11T23:49:20.800Z,77.53
2018-11-11T23:51:49.483Z,65.50
2018-11-11T23:54:18.130Z,77.30
2018-11-11T23:56:47.173Z,66.97
2018-11-11T23:59:15.857Z,81.20
